sensor_id;sensor_type;location;lat;lon;timestamp;pressure;altitude;pressure_sealevel;temperature;humidity
83514;BME280;73447;53.262;10.424;2024-01-16T00:01:15;100127.94;;;-1.16;89.14
83514;BME280;73447;53.262;10.424;2024-01-16T00:03:41;100129.19;;;-1.42;88.89
83514;BME280;73447;53.262;10.424;2024-01-16T00:06:07;100143.34;;;-1.35;89.31
83514;BME280;73447;53.262;10.424;2024-01-16T00:08:32;100143.16;;;-1.33;89.08
83514;BME280;73447;53.262;10.424;2024-01-16T00:10:58;100143.81;;;-1.31;88.63
83514;BME280;73447;53.262;10.424;2024-01-16T00:13:23;100152.69;;;-1.09;88.67
83514;BME280;73447;53.262;10.424;2024-01-16T00:15:49;100153.34;;;-1.22;87.50
83514;BME280;73447;53.262;10.424;2024-01-16T00:18:15;100151.25;;;-1.12;87.87
83514;BME280;73447;53.262;10.424;2024-01-16T00:20:40;100157.56;;;-1.51;87.64
83514;BME280;73447;53.262;10.424;2024-01-16T00:23:06;100161.28;;;-1.83;88.25
83514;BME280;73447;53.262;10.424;2024-01-16T00:25:31;100164.72;;;-1.74;88.30
83514;BME280;73447;53.262;10.424;2024-01-16T00:27:57;100161.09;;;-1.81;88.90
83514;BME280;73447;53.262;10.424;2024-01-16T00:30:22;100165.41;;;-1.80;88.97
83514;BME280;73447;53.262;10.424;2024-01-16T00:32:48;100167.09;;;-1.64;88.81
83514;BME280;73447;53.262;10.424;2024-01-16T00:35:13;100172.72;;;-1.82;87.65
83514;BME280;73447;53.262;10.424;2024-01-16T00:37:38;100178.19;;;-1.61;88.67
83514;BME280;73447;53.262;10.424;2024-01-16T00:40:05;100179.19;;;-1.24;88.32
83514;BME280;73447;53.262;10.424;2024-01-16T00:42:31;100181.97;;;-1.40;87.31
83514;BME280;73447;53.262;10.424;2024-01-16T00:44:57;100183.09;;;-1.35;88.19
83514;BME280;73447;53.262;10.424;2024-01-16T00:47:23;100192.63;;;-1.72;88.21
83514;BME280;73447;53.262;10.424;2024-01-16T00:49:48;100190.03;;;-1.80;87.99
83514;BME280;73447;53.262;10.424;2024-01-16T00:52:14;100192.09;;;-1.90;88.60
83514;BME280;73447;53.262;10.424;2024-01-16T00:54:40;100199.41;;;-1.69;89.15
83514;BME280;73447;53.262;10.424;2024-01-16T00:57:10;100193.69;;;-1.35;88.33
83514;BME280;73447;53.262;10.424;2024-01-16T00:59:54;100206.78;;;-1.18;88.06
83514;BME280;73447;53.262;10.424;2024-01-16T01:02:19;100217.56;;;-1.66;87.92
83514;BME280;73447;53.262;10.424;2024-01-16T01:04:44;100220.41;;;-1.44;88.12
83514;BME280;73447;53.262;10.424;2024-01-16T01:07:13;100229.66;;;-1.40;88.47
83514;BME280;73447;53.262;10.424;2024-01-16T01:09:38;100228.28;;;-1.36;88.18
83514;BME280;73447;53.262;10.424;2024-01-16T01:12:04;100227.75;;;-1.55;88.80
83514;BME280;73447;53.262;10.424;2024-01-16T01:14:29;100222.63;;;-1.79;87.84
83514;BME280;73447;53.262;10.424;2024-01-16T01:16:55;100232.47;;;-1.19;88.07
83514;BME280;73447;53.262;10.424;2024-01-16T01:19:20;100231.13;;;-1.61;87.88
83514;BME280;73447;53.262;10.424;2024-01-16T01:21:45;100234.72;;;-1.54;87.84
83514;BME280;73447;53.262;10.424;2024-01-16T01:24:11;100237.16;;;-1.44;88.31
83514;BME280;73447;53.262;10.424;2024-01-16T01:26:36;100238.41;;;-1.40;87.98
83514;BME280;73447;53.262;10.424;2024-01-16T01:29:01;100248.72;;;-1.22;88.71
83514;BME280;73447;53.262;10.424;2024-01-16T01:31:27;100246.19;;;-1.38;87.85
83514;BME280;73447;53.262;10.424;2024-01-16T01:33:52;100255.97;;;-1.62;88.09
83514;BME280;73447;53.262;10.424;2024-01-16T01:36:18;100254.00;;;-1.68;89.29
83514;BME280;73447;53.262;10.424;2024-01-16T01:38:43;100259.44;;;-1.38;88.91
83514;BME280;73447;53.262;10.424;2024-01-16T01:41:08;100260.81;;;-1.42;88.06
83514;BME280;73447;53.262;10.424;2024-01-16T01:43:37;100268.78;;;-1.27;88.53
83514;BME280;73447;53.262;10.424;2024-01-16T01:46:11;100278.97;;;-1.39;87.25
83514;BME280;73447;53.262;10.424;2024-01-16T01:48:40;100283.16;;;-1.45;86.79
83514;BME280;73447;53.262;10.424;2024-01-16T01:51:06;100277.84;;;-1.68;86.59
83514;BME280;73447;53.262;10.424;2024-01-16T01:53:33;100285.38;;;-1.57;86.06
83514;BME280;73447;53.262;10.424;2024-01-16T01:55:59;100292.97;;;-1.85;87.35
83514;BME280;73447;53.262;10.424;2024-01-16T01:58:27;100293.38;;;-1.65;86.19
83514;BME280;73447;53.262;10.424;2024-01-16T02:00:53;100294.47;;;-1.82;87.02
83514;BME280;73447;53.262;10.424;2024-01-16T02:03:18;100299.16;;;-1.93;87.48
83514;BME280;73447;53.262;10.424;2024-01-16T02:05:45;100293.34;;;-1.96;87.14
83514;BME280;73447;53.262;10.424;2024-01-16T02:08:11;100294.91;;;-2.10;87.72
83514;BME280;73447;53.262;10.424;2024-01-16T02:10:39;100298.38;;;-2.10;88.63
83514;BME280;73447;53.262;10.424;2024-01-16T02:13:07;100311.31;;;-2.23;87.97
83514;BME280;73447;53.262;10.424;2024-01-16T02:15:33;100302.44;;;-2.38;89.08
83514;BME280;73447;53.262;10.424;2024-01-16T02:17:58;100306.13;;;-2.00;89.50
83514;BME280;73447;53.262;10.424;2024-01-16T02:20:23;100306.69;;;-1.81;87.58
83514;BME280;73447;53.262;10.424;2024-01-16T02:22:51;100308.22;;;-1.56;88.19
83514;BME280;73447;53.262;10.424;2024-01-16T02:25:19;100306.22;;;-1.54;87.50
83514;BME280;73447;53.262;10.424;2024-01-16T02:27:44;100312.47;;;-1.78;88.15
83514;BME280;73447;53.262;10.424;2024-01-16T02:30:10;100318.19;;;-1.97;88.67
83514;BME280;73447;53.262;10.424;2024-01-16T02:32:35;100316.34;;;-1.34;87.88
83514;BME280;73447;53.262;10.424;2024-01-16T02:35:01;100323.00;;;-1.38;88.11
83514;BME280;73447;53.262;10.424;2024-01-16T02:37:26;100329.56;;;-1.49;86.66
83514;BME280;73447;53.262;10.424;2024-01-16T02:39:51;100326.53;;;-1.77;87.06
83514;BME280;73447;53.262;10.424;2024-01-16T02:42:17;100336.81;;;-1.51;87.72
83514;BME280;73447;53.262;10.424;2024-01-16T02:44:42;100333.31;;;-1.75;87.51
83514;BME280;73447;53.262;10.424;2024-01-16T02:47:08;100346.41;;;-1.81;88.16
83514;BME280;73447;53.262;10.424;2024-01-16T02:49:33;100341.00;;;-1.57;88.37
83514;BME280;73447;53.262;10.424;2024-01-16T02:51:58;100353.31;;;-1.41;87.16
83514;BME280;73447;53.262;10.424;2024-01-16T02:54:24;100356.16;;;-1.42;87.21
83514;BME280;73447;53.262;10.424;2024-01-16T02:56:49;100361.25;;;-1.41;87.12
83514;BME280;73447;53.262;10.424;2024-01-16T02:59:15;100356.66;;;-1.78;87.09
83514;BME280;73447;53.262;10.424;2024-01-16T03:01:40;100369.06;;;-1.47;87.67
83514;BME280;73447;53.262;10.424;2024-01-16T03:04:06;100365.44;;;-1.46;86.22
83514;BME280;73447;53.262;10.424;2024-01-16T03:06:31;100359.50;;;-1.48;85.55
83514;BME280;73447;53.262;10.424;2024-01-16T03:08:56;100359.97;;;-1.84;86.23
83514;BME280;73447;53.262;10.424;2024-01-16T03:11:22;100349.19;;;-2.14;86.62
83514;BME280;73447;53.262;10.424;2024-01-16T03:13:47;100349.69;;;-2.19;87.66
83514;BME280;73447;53.262;10.424;2024-01-16T03:16:14;100346.75;;;-2.49;88.03
83514;BME280;73447;53.262;10.424;2024-01-16T03:18:41;100345.53;;;-2.21;88.81
83514;BME280;73447;53.262;10.424;2024-01-16T03:21:06;100350.16;;;-2.15;89.01
83514;BME280;73447;53.262;10.424;2024-01-16T03:23:32;100355.50;;;-2.32;88.09
83514;BME280;73447;53.262;10.424;2024-01-16T03:25:58;100354.78;;;-2.09;87.95
83514;BME280;73447;53.262;10.424;2024-01-16T03:28:23;100354.03;;;-1.87;88.15
83514;BME280;73447;53.262;10.424;2024-01-16T03:30:49;100363.28;;;-1.74;87.52
83514;BME280;73447;53.262;10.424;2024-01-16T03:33:14;100358.63;;;-1.72;87.59
83514;BME280;73447;53.262;10.424;2024-01-16T03:35:40;100361.81;;;-1.45;87.52
83514;BME280;73447;53.262;10.424;2024-01-16T03:38:05;100364.50;;;-1.54;86.04
83514;BME280;73447;53.262;10.424;2024-01-16T03:40:30;100352.13;;;-2.01;87.73
83514;BME280;73447;53.262;10.424;2024-01-16T03:43:00;100352.28;;;-1.63;87.52
83514;BME280;73447;53.262;10.424;2024-01-16T03:45:25;100347.41;;;-1.82;87.37
83514;BME280;73447;53.262;10.424;2024-01-16T03:47:50;100350.78;;;-2.05;87.02
83514;BME280;73447;53.262;10.424;2024-01-16T03:50:16;100355.50;;;-2.56;87.67
83514;BME280;73447;53.262;10.424;2024-01-16T03:52:41;100346.59;;;-2.47;88.55
83514;BME280;73447;53.262;10.424;2024-01-16T03:55:07;100351.91;;;-2.80;88.81
83514;BME280;73447;53.262;10.424;2024-01-16T03:57:32;100349.59;;;-2.91;89.79
83514;BME280;73447;53.262;10.424;2024-01-16T03:59:58;100357.03;;;-2.62;90.71
83514;BME280;73447;53.262;10.424;2024-01-16T04:02:23;100365.13;;;-2.55;90.09
83514;BME280;73447;53.262;10.424;2024-01-16T04:04:49;100357.81;;;-2.37;90.60
83514;BME280;73447;53.262;10.424;2024-01-16T04:07:14;100364.06;;;-2.21;89.22
83514;BME280;73447;53.262;10.424;2024-01-16T04:09:39;100357.75;;;-2.04;88.76
83514;BME280;73447;53.262;10.424;2024-01-16T04:12:06;100368.06;;;-2.26;89.01
83514;BME280;73447;53.262;10.424;2024-01-16T04:14:33;100361.75;;;-2.25;87.79
83514;BME280;73447;53.262;10.424;2024-01-16T04:16:58;100362.44;;;-2.22;88.63
83514;BME280;73447;53.262;10.424;2024-01-16T04:19:24;100356.03;;;-2.45;89.06
83514;BME280;73447;53.262;10.424;2024-01-16T04:21:49;100357.78;;;-2.20;88.64
83514;BME280;73447;53.262;10.424;2024-01-16T04:24:15;100354.50;;;-2.31;88.56
83514;BME280;73447;53.262;10.424;2024-01-16T04:26:40;100351.56;;;-2.44;87.71
83514;BME280;73447;53.262;10.424;2024-01-16T04:29:05;100352.69;;;-2.47;87.67
83514;BME280;73447;53.262;10.424;2024-01-16T04:31:32;100351.25;;;-2.74;89.09
83514;BME280;73447;53.262;10.424;2024-01-16T04:33:57;100354.53;;;-2.72;90.02
83514;BME280;73447;53.262;10.424;2024-01-16T04:36:23;100361.81;;;-2.90;90.24
83514;BME280;73447;53.262;10.424;2024-01-16T04:38:48;100354.22;;;-2.69;89.89
83514;BME280;73447;53.262;10.424;2024-01-16T04:41:17;100356.34;;;-2.48;89.94
83514;BME280;73447;53.262;10.424;2024-01-16T04:43:43;100354.84;;;-2.34;89.55
83514;BME280;73447;53.262;10.424;2024-01-16T04:46:10;100356.66;;;-2.34;88.47
83514;BME280;73447;53.262;10.424;2024-01-16T04:48:35;100368.06;;;-2.26;88.12
83514;BME280;73447;53.262;10.424;2024-01-16T04:51:01;100368.56;;;-2.30;88.58
83514;BME280;73447;53.262;10.424;2024-01-16T04:53:26;100379.25;;;-2.07;88.54
83514;BME280;73447;53.262;10.424;2024-01-16T04:55:52;100374.94;;;-2.00;88.19
83514;BME280;73447;53.262;10.424;2024-01-16T04:58:17;100374.31;;;-2.27;87.60
83514;BME280;73447;53.262;10.424;2024-01-16T05:00:43;100367.09;;;-2.41;87.79
83514;BME280;73447;53.262;10.424;2024-01-16T05:03:09;100363.72;;;-2.10;88.00
83514;BME280;73447;53.262;10.424;2024-01-16T05:05:34;100374.84;;;-2.31;88.00
83514;BME280;73447;53.262;10.424;2024-01-16T05:08:03;100372.44;;;-2.01;88.34
83514;BME280;73447;53.262;10.424;2024-01-16T05:10:28;100366.69;;;-2.13;87.93
83514;BME280;73447;53.262;10.424;2024-01-16T05:12:53;100366.22;;;-2.17;88.64
83514;BME280;73447;53.262;10.424;2024-01-16T05:15:19;100363.53;;;-2.09;87.47
83514;BME280;73447;53.262;10.424;2024-01-16T05:17:45;100372.25;;;-1.92;87.59
83514;BME280;73447;53.262;10.424;2024-01-16T05:20:10;100357.97;;;-1.74;86.73
83514;BME280;73447;53.262;10.424;2024-01-16T05:22:36;100354.75;;;-1.93;86.91
83514;BME280;73447;53.262;10.424;2024-01-16T05:25:03;100351.25;;;-1.93;87.79
83514;BME280;73447;53.262;10.424;2024-01-16T05:27:29;100360.16;;;-1.86;87.15
83514;BME280;73447;53.262;10.424;2024-01-16T05:29:54;100364.66;;;-2.03;87.79
83514;BME280;73447;53.262;10.424;2024-01-16T05:32:20;100354.19;;;-1.88;87.54
83514;BME280;73447;53.262;10.424;2024-01-16T05:34:45;100372.22;;;-1.83;87.07
83514;BME280;73447;53.262;10.424;2024-01-16T05:37:11;100367.56;;;-1.81;86.86
83514;BME280;73447;53.262;10.424;2024-01-16T05:39:36;100361.94;;;-1.78;87.13
83514;BME280;73447;53.262;10.424;2024-01-16T05:42:02;100355.91;;;-2.03;87.60
83514;BME280;73447;53.262;10.424;2024-01-16T05:44:27;100350.19;;;-2.24;88.42
83514;BME280;73447;53.262;10.424;2024-01-16T05:46:53;100367.72;;;-2.31;88.66
83514;BME280;73447;53.262;10.424;2024-01-16T05:49:18;100366.69;;;-2.13;88.00
83514;BME280;73447;53.262;10.424;2024-01-16T05:51:44;100352.66;;;-2.14;87.76
83514;BME280;73447;53.262;10.424;2024-01-16T05:54:09;100363.50;;;-1.92;88.20
83514;BME280;73447;53.262;10.424;2024-01-16T05:56:34;100361.81;;;-1.85;87.60
83514;BME280;73447;53.262;10.424;2024-01-16T05:59:00;100362.72;;;-2.01;88.04
83514;BME280;73447;53.262;10.424;2024-01-16T06:01:25;100363.34;;;-1.99;88.24
83514;BME280;73447;53.262;10.424;2024-01-16T06:03:52;100375.19;;;-1.78;87.92
83514;BME280;73447;53.262;10.424;2024-01-16T06:06:17;100375.19;;;-1.78;87.40
83514;BME280;73447;53.262;10.424;2024-01-16T06:08:44;100373.22;;;-1.84;87.15
83514;BME280;73447;53.262;10.424;2024-01-16T06:11:10;100365.38;;;-1.70;86.54
83514;BME280;73447;53.262;10.424;2024-01-16T06:13:36;100370.63;;;-1.93;87.24
83514;BME280;73447;53.262;10.424;2024-01-16T06:16:01;100374.47;;;-1.64;86.83
83514;BME280;73447;53.262;10.424;2024-01-16T06:18:28;100375.16;;;-1.70;87.28
83514;BME280;73447;53.262;10.424;2024-01-16T06:20:53;100377.88;;;-1.95;87.98
83514;BME280;73447;53.262;10.424;2024-01-16T06:23:19;100370.56;;;-1.84;88.38
83514;BME280;73447;53.262;10.424;2024-01-16T06:25:45;100375.16;;;-1.70;86.83
83514;BME280;73447;53.262;10.424;2024-01-16T06:28:10;100371.72;;;-1.79;87.49
83514;BME280;73447;53.262;10.424;2024-01-16T06:30:36;100363.75;;;-1.71;87.14
83514;BME280;73447;53.262;10.424;2024-01-16T06:33:02;100366.56;;;-1.72;86.47
83514;BME280;73447;53.262;10.424;2024-01-16T06:35:27;100355.00;;;-1.79;87.14
83514;BME280;73447;53.262;10.424;2024-01-16T06:37:53;100361.63;;;-1.83;86.92
83514;BME280;73447;53.262;10.424;2024-01-16T06:40:18;100367.16;;;-2.01;88.00
83514;BME280;73447;53.262;10.424;2024-01-16T06:42:43;100376.53;;;-1.82;87.61
83514;BME280;73447;53.262;10.424;2024-01-16T06:45:09;100382.69;;;-1.98;87.83
83514;BME280;73447;53.262;10.424;2024-01-16T06:47:35;100377.53;;;-1.92;87.64
83514;BME280;73447;53.262;10.424;2024-01-16T06:50:00;100379.53;;;-1.94;87.53
83514;BME280;73447;53.262;10.424;2024-01-16T06:52:25;100380.53;;;-1.95;87.72
83514;BME280;73447;53.262;10.424;2024-01-16T06:54:51;100388.56;;;-1.72;87.83
83514;BME280;73447;53.262;10.424;2024-01-16T06:57:16;100388.50;;;-1.55;86.79
83514;BME280;73447;53.262;10.424;2024-01-16T06:59:41;100378.66;;;-1.78;87.35
83514;BME280;73447;53.262;10.424;2024-01-16T07:02:07;100385.94;;;-1.80;86.78
83514;BME280;73447;53.262;10.424;2024-01-16T07:04:33;100386.28;;;-1.83;86.43
83514;BME280;73447;53.262;10.424;2024-01-16T07:06:59;100389.09;;;-1.84;86.38
83514;BME280;73447;53.262;10.424;2024-01-16T07:09:25;100380.44;;;-1.70;86.72
83514;BME280;73447;53.262;10.424;2024-01-16T07:11:50;100384.75;;;-1.69;86.18
83514;BME280;73447;53.262;10.424;2024-01-16T07:14:16;100383.16;;;-1.87;86.50
83514;BME280;73447;53.262;10.424;2024-01-16T07:16:41;100384.03;;;-2.02;86.98
83514;BME280;73447;53.262;10.424;2024-01-16T07:19:08;100386.63;;;-1.86;87.30
83514;BME280;73447;53.262;10.424;2024-01-16T07:21:33;100381.53;;;-1.96;87.42
83514;BME280;73447;53.262;10.424;2024-01-16T07:23:59;100374.25;;;-1.94;87.71
83514;BME280;73447;53.262;10.424;2024-01-16T07:26:24;100378.19;;;-1.90;86.73
83514;BME280;73447;53.262;10.424;2024-01-16T07:28:50;100388.13;;;-1.83;87.48
83514;BME280;73447;53.262;10.424;2024-01-16T07:31:15;100385.78;;;-1.78;87.17
83514;BME280;73447;53.262;10.424;2024-01-16T07:33:45;100389.41;;;-1.79;87.18
83514;BME280;73447;53.262;10.424;2024-01-16T07:36:12;100387.44;;;-1.77;87.05
83514;BME280;73447;53.262;10.424;2024-01-16T07:38:37;100380.84;;;-1.90;87.59
83514;BME280;73447;53.262;10.424;2024-01-16T07:41:03;100390.91;;;-1.77;87.59
83514;BME280;73447;53.262;10.424;2024-01-16T07:43:28;100395.31;;;-1.61;86.38
83514;BME280;73447;53.262;10.424;2024-01-16T07:45:57;100390.63;;;-1.51;86.14
83514;BME280;73447;53.262;10.424;2024-01-16T07:48:22;100385.53;;;-1.60;86.47
83514;BME280;73447;53.262;10.424;2024-01-16T07:50:48;100395.25;;;-1.53;87.08
83514;BME280;73447;53.262;10.424;2024-01-16T07:53:14;100395.75;;;-1.49;86.43
83514;BME280;73447;53.262;10.424;2024-01-16T07:55:40;100392.97;;;-1.56;85.91
83514;BME280;73447;53.262;10.424;2024-01-16T07:58:06;100405.31;;;-1.40;85.92
83514;BME280;73447;53.262;10.424;2024-01-16T08:00:31;100402.38;;;-1.53;85.74
83514;BME280;73447;53.262;10.424;2024-01-16T08:02:56;100398.28;;;-1.56;86.63
83514;BME280;73447;53.262;10.424;2024-01-16T08:05:22;100402.22;;;-1.52;86.18
83514;BME280;73447;53.262;10.424;2024-01-16T08:07:51;100400.47;;;-1.67;86.09
83514;BME280;73447;53.262;10.424;2024-01-16T08:10:16;100399.59;;;-1.60;87.17
83514;BME280;73447;53.262;10.424;2024-01-16T08:12:42;100394.63;;;-1.55;86.72
83514;BME280;73447;53.262;10.424;2024-01-16T08:15:07;100402.19;;;-1.43;85.59
83514;BME280;73447;53.262;10.424;2024-01-16T08:17:33;100396.59;;;-1.48;85.75
83514;BME280;73447;53.262;10.424;2024-01-16T08:19:59;100405.13;;;-1.38;85.95
83514;BME280;73447;53.262;10.424;2024-01-16T08:22:24;100412.13;;;-1.45;86.24
83514;BME280;73447;53.262;10.424;2024-01-16T08:24:50;100406.44;;;-1.34;85.52
83514;BME280;73447;53.262;10.424;2024-01-16T08:27:15;100409.44;;;-1.37;85.58
83514;BME280;73447;53.262;10.424;2024-01-16T08:29:42;100404.34;;;-1.47;86.26
83514;BME280;73447;53.262;10.424;2024-01-16T08:32:07;100411.72;;;-1.34;85.56
83514;BME280;73447;53.262;10.424;2024-01-16T08:34:33;100399.06;;;-1.47;86.93
83514;BME280;73447;53.262;10.424;2024-01-16T08:36:58;100411.25;;;-1.38;86.61
83514;BME280;73447;53.262;10.424;2024-01-16T08:39:23;100411.34;;;-1.54;87.16
83514;BME280;73447;53.262;10.424;2024-01-16T08:41:50;100419.09;;;-1.53;87.56
83514;BME280;73447;53.262;10.424;2024-01-16T08:44:15;100421.97;;;-1.31;88.08
83514;BME280;73447;53.262;10.424;2024-01-16T08:46:40;100410.44;;;-1.38;86.86
83514;BME280;73447;53.262;10.424;2024-01-16T08:49:06;100427.69;;;-1.42;87.09
83514;BME280;73447;53.262;10.424;2024-01-16T08:51:31;100422.63;;;-1.60;86.95
83514;BME280;73447;53.262;10.424;2024-01-16T08:53:56;100423.03;;;-1.40;86.74
83514;BME280;73447;53.262;10.424;2024-01-16T08:56:22;100427.06;;;-1.21;86.58
83514;BME280;73447;53.262;10.424;2024-01-16T08:58:47;100423.31;;;-1.27;86.55
83514;BME280;73447;53.262;10.424;2024-01-16T09:01:13;100428.81;;;-1.05;85.75
83514;BME280;73447;53.262;10.424;2024-01-16T09:03:38;100421.34;;;-1.02;86.12
83514;BME280;73447;53.262;10.424;2024-01-16T09:06:03;100423.81;;;-1.00;86.18
83514;BME280;73447;53.262;10.424;2024-01-16T09:08:29;100421.81;;;-0.98;85.28
83514;BME280;73447;53.262;10.424;2024-01-16T09:10:56;100424.50;;;-1.06;85.46
83514;BME280;73447;53.262;10.424;2024-01-16T09:13:21;100414.50;;;-0.96;86.28
83514;BME280;73447;53.262;10.424;2024-01-16T09:15:48;100418.09;;;-0.89;84.98
83514;BME280;73447;53.262;10.424;2024-01-16T09:18:15;100414.91;;;-0.84;84.26
83514;BME280;73447;53.262;10.424;2024-01-16T09:20:41;100412.09;;;-0.83;84.75
83514;BME280;73447;53.262;10.424;2024-01-16T09:23:07;100414.50;;;-0.96;84.96
83514;BME280;73447;53.262;10.424;2024-01-16T09:25:33;100420.03;;;-0.83;85.01
83514;BME280;73447;53.262;10.424;2024-01-16T09:27:58;100419.69;;;-0.80;84.72
83514;BME280;73447;53.262;10.424;2024-01-16T09:30:24;100420.16;;;-0.99;85.09
83514;BME280;73447;53.262;10.424;2024-01-16T09:32:49;100424.19;;;-0.80;84.96
83514;BME280;73447;53.262;10.424;2024-01-16T09:35:15;100424.16;;;-1.03;84.57
83514;BME280;73447;53.262;10.424;2024-01-16T09:37:40;100426.50;;;-1.08;84.68
83514;BME280;73447;53.262;10.424;2024-01-16T09:40:06;100435.31;;;-1.16;85.64
83514;BME280;73447;53.262;10.424;2024-01-16T09:42:32;100425.50;;;-1.07;86.25
83514;BME280;73447;53.262;10.424;2024-01-16T09:45:00;100428.53;;;-1.10;86.56
83514;BME280;73447;53.262;10.424;2024-01-16T09:47:26;100426.13;;;-0.97;86.08
83514;BME280;73447;53.262;10.424;2024-01-16T09:49:52;100423.34;;;-0.81;85.65
83514;BME280;73447;53.262;10.424;2024-01-16T09:52:19;100425.34;;;-0.83;84.90
83514;BME280;73447;53.262;10.424;2024-01-16T09:54:45;100425.94;;;-0.72;84.85
83514;BME280;73447;53.262;10.424;2024-01-16T09:57:12;100428.34;;;-0.63;83.92
83514;BME280;73447;53.262;10.424;2024-01-16T09:59:39;100423.72;;;-0.84;84.17
83514;BME280;73447;53.262;10.424;2024-01-16T10:02:08;100420.84;;;-0.59;84.10
83514;BME280;73447;53.262;10.424;2024-01-16T10:04:35;100425.34;;;-0.36;83.13
83514;BME280;73447;53.262;10.424;2024-01-16T10:07:01;100421.94;;;-0.45;82.37
83514;BME280;73447;53.262;10.424;2024-01-16T10:09:27;100420.16;;;-0.53;83.55
83514;BME280;73447;53.262;10.424;2024-01-16T10:11:53;100417.56;;;-0.38;82.72
83514;BME280;73447;53.262;10.424;2024-01-16T10:14:20;100426.84;;;-0.42;83.46
83514;BME280;73447;53.262;10.424;2024-01-16T10:19:21;100425.09;;;-0.27;82.85
83514;BME280;73447;53.262;10.424;2024-01-16T10:21:46;100428.19;;;-0.23;82.44
83514;BME280;73447;53.262;10.424;2024-01-16T10:24:12;100422.97;;;-0.31;82.55
83514;BME280;73447;53.262;10.424;2024-01-16T10:26:41;100426.41;;;0.07;81.63
83514;BME280;73447;53.262;10.424;2024-01-16T10:29:06;100428.34;;;-0.02;81.73
83514;BME280;73447;53.262;10.424;2024-01-16T10:31:31;100423.84;;;0.29;82.11
83514;BME280;73447;53.262;10.424;2024-01-16T10:33:57;100426.50;;;0.29;81.26
83514;BME280;73447;53.262;10.424;2024-01-16T10:36:23;100420.06;;;0.23;80.60
83514;BME280;73447;53.262;10.424;2024-01-16T10:38:49;100421.81;;;0.16;81.57
83514;BME280;73447;53.262;10.424;2024-01-16T10:41:22;100421.56;;;0.41;80.30
83514;BME280;73447;53.262;10.424;2024-01-16T10:44:03;100426.69;;;0.12;80.25
83514;BME280;73447;53.262;10.424;2024-01-16T10:46:29;100429.72;;;0.24;80.57
83514;BME280;73447;53.262;10.424;2024-01-16T10:49:04;100430.50;;;0.10;81.40
83514;BME280;73447;53.262;10.424;2024-01-16T10:51:31;100432.53;;;0.38;79.90
83514;BME280;73447;53.262;10.424;2024-01-16T10:54:02;100432.34;;;0.54;80.22
83514;BME280;73447;53.262;10.424;2024-01-16T10:56:31;100434.47;;;0.95;79.48
83514;BME280;73447;53.262;10.424;2024-01-16T11:01:37;100417.50;;;0.15;81.11
83514;BME280;73447;53.262;10.424;2024-01-16T11:04:03;100426.31;;;0.30;81.28
83514;BME280;73447;53.262;10.424;2024-01-16T11:06:28;100430.44;;;0.48;81.08
83514;BME280;73447;53.262;10.424;2024-01-16T11:08:56;100436.38;;;0.50;79.42
83514;BME280;73447;53.262;10.424;2024-01-16T11:11:23;100436.53;;;0.63;79.82
83514;BME280;73447;53.262;10.424;2024-01-16T11:13:50;100434.28;;;0.30;80.29
83514;BME280;73447;53.262;10.424;2024-01-16T11:16:16;100430.16;;;0.28;81.30
83514;BME280;73447;53.262;10.424;2024-01-16T11:18:41;100441.25;;;0.31;80.53
83514;BME280;73447;53.262;10.424;2024-01-16T11:21:10;100440.31;;;0.09;81.43
83514;BME280;73447;53.262;10.424;2024-01-16T11:23:36;100448.66;;;0.66;80.11
83514;BME280;73447;53.262;10.424;2024-01-16T11:26:24;100448.22;;;0.84;79.58
83514;BME280;73447;53.262;10.424;2024-01-16T11:28:49;100449.38;;;0.60;80.97
83514;BME280;73447;53.262;10.424;2024-01-16T11:31:34;100453.34;;;0.19;81.33
83514;BME280;73447;53.262;10.424;2024-01-16T11:34:02;100451.97;;;0.53;79.98
83514;BME280;73447;53.262;10.424;2024-01-16T11:36:49;100448.03;;;0.19;82.24
83514;BME280;73447;53.262;10.424;2024-01-16T11:39:23;100456.00;;;0.49;81.01
83514;BME280;73447;53.262;10.424;2024-01-16T11:44:47;100455.44;;;0.09;82.26
83514;BME280;73447;53.262;10.424;2024-01-16T11:47:22;100457.63;;;0.50;81.83
83514;BME280;73447;53.262;10.424;2024-01-16T11:49:48;100452.50;;;0.33;81.68
83514;BME280;73447;53.262;10.424;2024-01-16T11:52:14;100452.88;;;0.30;82.19
83514;BME280;73447;53.262;10.424;2024-01-16T11:54:41;100451.06;;;0.46;81.37
83514;BME280;73447;53.262;10.424;2024-01-16T12:02:49;100448.38;;;0.16;81.96
83514;BME280;73447;53.262;10.424;2024-01-16T12:05:11;100444.25;;;0.58;80.99
83514;BME280;73447;53.262;10.424;2024-01-16T12:07:45;100437.50;;;0.41;81.73
83514;BME280;73447;53.262;10.424;2024-01-16T12:10:10;100440.13;;;0.11;82.10
83514;BME280;73447;53.262;10.424;2024-01-16T12:12:36;100453.44;;;0.41;81.12
83514;BME280;73447;53.262;10.424;2024-01-16T12:15:01;100449.19;;;0.16;82.35
83514;BME280;73447;53.262;10.424;2024-01-16T12:17:27;100442.78;;;-0.04;83.22
83514;BME280;73447;53.262;10.424;2024-01-16T12:19:52;100446.44;;;0.10;83.32
83514;BME280;73447;53.262;10.424;2024-01-16T12:22:18;100450.81;;;-0.12;82.86
83514;BME280;73447;53.262;10.424;2024-01-16T12:24:46;100446.72;;;-0.15;83.22
83514;BME280;73447;53.262;10.424;2024-01-16T12:27:13;100439.41;;;0.17;83.37
83514;BME280;73447;53.262;10.424;2024-01-16T12:29:38;100445.66;;;0.54;82.03
83514;BME280;73447;53.262;10.424;2024-01-16T12:34:43;100444.25;;;-0.02;83.10
83514;BME280;73447;53.262;10.424;2024-01-16T12:37:10;100448.84;;;0.34;83.42
83514;BME280;73447;53.262;10.424;2024-01-16T12:39:36;100451.69;;;0.48;81.72
83514;BME280;73447;53.262;10.424;2024-01-16T12:42:02;100441.78;;;0.42;81.97
83514;BME280;73447;53.262;10.424;2024-01-16T12:44:28;100456.09;;;0.55;81.83
83514;BME280;73447;53.262;10.424;2024-01-16T12:46:55;100451.13;;;0.38;82.50
83514;BME280;73447;53.262;10.424;2024-01-16T12:49:22;100458.44;;;0.06;82.50
83514;BME280;73447;53.262;10.424;2024-01-16T12:51:48;100464.22;;;0.24;82.16